Time;durP1;ratioP1;P1;durP2;ratioP2;P2;SDS_P1;SDS_P2;PMS_P1;PMS_P2;Temp;Humidity;BMP_temperature;BMP_pressure;BME280_temperature;BME280_humidity;BME280_pressure;Samples;Min_cycle;Max_cycle;Signal;HPM_P1;HPM_P2
2020/12/23 00:00:09;;;;;;;142.03;104.10;;;;;;;;;;5161078;27;20485;-54
2020/12/23 00:02:36;;;;;;;70.67;57.67;;;;;;;;;;5155008;27;20457;-58
2020/12/23 00:08:00;;;;;;;30.00;18.80;;;;;;;;;;5151057;27;20468;-56
2020/12/23 00:13:15;;;;;;;44.37;27.23;;;;;;;;;;5145168;27;20442;-51
2020/12/23 00:15:50;;;;;;;55.47;31.13;;;;;;;;;;5150989;27;20485;-56
2020/12/23 00:18:20;;;;;;;124.43;73.23;;;;;;;;;;5156526;27;20449;-52
2020/12/23 00:20:50;;;;;;;129.83;88.60;;;;;;;;;;5129174;28;20493;-60
2020/12/23 00:23:20;;;;;;;139.30;88.40;;;;;;;;;;5135415;28;20489;-59
2020/12/23 00:25:47;;;;;;;12.47;6.57;;;;;;;;;;5143715;27;20527;-49
2020/12/23 00:28:18;;;;;;;81.37;53.23;;;;;;;;;;5154937;27;20462;-52
2020/12/23 00:31:00;;;;;;;;;;;;;;;;;;;;;
2020/12/23 00:33:28;;;;;;;12.37;7.63;;;;;;;;;;5147905;27;20480;-53
2020/12/23 00:35:55;;;;;;;7.43;3.87;;;;;;;;;;5153563;27;20460;-58
2020/12/23 00:38:35;;;;;;;7.50;3.53;;;;;;;;;;5154458;27;20479;-54
2020/12/23 00:41:06;;;;;;;6.73;3.80;;;;;;;;;;5154394;27;20475;-55
2020/12/23 00:43:33;;;;;;;15.60;6.73;;;;;;;;;;5156877;27;20506;-52
2020/12/23 00:46:36;;;;;;;17.67;11.70;;;;;;;;;;5173715;27;20564;-52
2020/12/23 00:49:03;;;;;;;72.70;52.00;;;;;;;;;;5141564;27;20552;-53
2020/12/23 00:51:42;;;;;;;29.10;19.70;;;;;;;;;;5136291;27;20449;-57
2020/12/23 00:54:10;;;;;;;17.70;10.07;;;;;;;;;;5134425;27;20457;-48
2020/12/23 00:59:22;;;;;;;8.77;6.03;;;;;;;;;;5133649;27;20450;-56
2020/12/23 01:01:49;;;;;;;13.77;7.17;;;;;;;;;;5148832;27;20487;-53
2020/12/23 01:04:16;;;;;;;10.40;6.20;;;;;;;;;;5154632;27;20527;-55
2020/12/23 01:06:59;;;;;;;19.07;10.70;;;;;;;;;;5155299;27;20465;-54
2020/12/23 01:09:40;;;;;;;18.20;7.80;;;;;;;;;;5155616;27;20493;-55
2020/12/23 01:12:15;;;;;;;30.30;15.50;;;;;;;;;;5138857;27;20462;-54
2020/12/23 01:17:39;;;;;;;84.70;46.43;;;;;;;;;;5123242;28;20484;-58
2020/12/23 01:26:12;;;;;;;189.37;115.70;;;;;;;;;;5142825;27;20441;-59
2020/12/23 01:29:07;;;;;;;225.23;141.13;;;;;;;;;;5145116;27;20477;-55
2020/12/23 01:31:35;;;;;;;65.93;41.87;;;;;;;;;;5109427;27;20506;-58
2020/12/23 01:37:31;;;;;;;13.77;8.90;;;;;;;;;;5122188;27;843508;-56
2020/12/23 01:40:02;;;;;;;19.87;14.70;;;;;;;;;;5129426;28;20265;-53
2020/12/23 01:42:45;;;;;;;12.77;9.87;;;;;;;;;;5128624;28;20447;-54
2020/12/23 01:45:14;;;;;;;12.93;10.17;;;;;;;;;;5129138;28;20458;-53
2020/12/23 01:47:44;;;;;;;12.83;9.07;;;;;;;;;;5129464;28;20878;-54
2020/12/23 01:50:13;;;;;;;19.53;12.40;;;;;;;;;;5129368;28;20464;-58
2020/12/23 01:52:41;;;;;;;16.97;13.03;;;;;;;;;;5128403;28;20430;-50
2020/12/23 01:55:08;;;;;;;9.93;8.13;;;;;;;;;;5128739;28;20473;-58
2020/12/23 01:57:54;;;;;;;16.70;11.70;;;;;;;;;;5126974;28;20462;-55
2020/12/23 02:00:28;;;;;;;16.00;10.10;;;;;;;;;;5126562;28;20450;-55
2020/12/23 02:02:56;;;;;;;17.53;12.90;;;;;;;;;;5127029;28;20430;-51
2020/12/23 02:05:38;;;;;;;11.47;8.80;;;;;;;;;;5127823;28;20427;-56
2020/12/23 02:08:15;;;;;;;16.00;10.63;;;;;;;;;;5126185;28;20478;-56
2020/12/23 02:10:46;;;;;;;9.60;7.40;;;;;;;;;;5127923;28;20521;-49
2020/12/23 02:16:37;;;;;;;11.17;8.23;;;;;;;;;;5127016;28;20476;-56
2020/12/23 02:19:49;;;;;;;7.87;6.70;;;;;;;;;;5089967;28;20597;-54
2020/12/23 02:22:22;;;;;;;20.20;6.70;;;;;;;;;;5067367;28;20460;-54
2020/12/23 02:25:09;;;;;;;6.80;5.63;;;;;;;;;;5067467;28;20484;-57
2020/12/23 02:27:37;;;;;;;7.33;6.10;;;;;;;;;;5067580;28;20739;-51
2020/12/23 02:30:10;;;;;;;8.23;5.73;;;;;;;;;;5067846;28;20434;-47
2020/12/23 02:32:37;;;;;;;8.03;5.87;;;;;;;;;;5068094;28;20498;-55
2020/12/23 02:35:05;;;;;;;10.73;6.07;;;;;;;;;;5086678;28;20463;-55
2020/12/23 02:40:46;;;;;;;7.23;5.40;;;;;;;;;;5021826;28;20478;-51
2020/12/23 02:43:23;;;;;;;7.17;5.00;;;;;;;;;;5087690;28;20455;-58
2020/12/23 02:45:50;;;;;;;6.77;5.27;;;;;;;;;;5082951;28;20482;-55
2020/12/23 02:58:15;;;;;;;7.67;5.60;;;;;;;;;;5062285;28;20560;-55
2020/12/23 03:00:42;;;;;;;7.37;4.77;;;;;;;;;;5074429;28;20463;-53
2020/12/23 03:03:09;;;;;;;10.20;7.17;;;;;;;;;;5075022;28;20451;-53
2020/12/23 03:05:36;;;;;;;9.80;6.97;;;;;;;;;;5075933;28;20457;-55
2020/12/23 03:08:08;;;;;;;12.43;5.30;;;;;;;;;;5075366;28;20461;-53
2020/12/23 03:10:36;;;;;;;16.97;12.07;;;;;;;;;;5076270;28;20442;-53
2020/12/23 03:13:03;;;;;;;13.10;7.90;;;;;;;;;;5075720;28;20463;-56
2020/12/23 03:15:35;;;;;;;6.13;4.93;;;;;;;;;;5076050;28;20488;-53
2020/12/23 03:18:03;;;;;;;8.37;5.77;;;;;;;;;;5075684;28;20513;-59
2020/12/23 03:20:29;;;;;;;10.73;7.77;;;;;;;;;;5075147;28;20437;-53
2020/12/23 03:23:03;;;;;;;10.70;5.90;;;;;;;;;;5075606;28;20449;-52
2020/12/23 03:25:30;;;;;;;9.83;7.53;;;;;;;;;;5075095;28;20483;-57
2020/12/23 03:27:57;;;;;;;10.27;7.20;;;;;;;;;;5074836;28;20455;-57
2020/12/23 03:30:26;;;;;;;17.07;10.30;;;;;;;;;;5075386;28;20461;-55
2020/12/23 03:32:52;;;;;;;11.87;7.80;;;;;;;;;;5075248;28;20463;-57
2020/12/23 03:35:20;;;;;;;6.73;4.90;;;;;;;;;;5075697;28;20449;-53
2020/12/23 03:37:49;;;;;;;6.90;4.67;;;;;;;;;;5075039;28;20462;-49
2020/12/23 03:40:16;;;;;;;11.23;9.17;;;;;;;;;;5074734;28;20613;-52
2020/12/23 03:42:43;;;;;;;8.10;6.03;;;;;;;;;;5074961;28;20454;-53
2020/12/23 03:45:22;;;;;;;7.93;5.40;;;;;;;;;;5074837;28;20445;-55
2020/12/23 03:47:49;;;;;;;9.97;6.50;;;;;;;;;;5074590;28;20461;-56
2020/12/23 03:50:15;;;;;;;16.40;10.00;;;;;;;;;;5075002;28;20442;-53
2020/12/23 03:52:45;;;;;;;6.67;4.80;;;;;;;;;;5074218;28;20464;-52
2020/12/23 03:55:12;;;;;;;6.20;4.20;;;;;;;;;;5074975;28;20465;-59
2020/12/23 03:57:39;;;;;;;5.93;3.70;;;;;;;;;;5073813;28;20503;-53
2020/12/23 04:00:06;;;;;;;9.30;5.97;;;;;;;;;;5073425;28;20486;-53
2020/12/23 04:02:35;;;;;;;10.80;8.00;;;;;;;;;;5068833;28;20446;-56
2020/12/23 04:05:02;;;;;;;10.50;6.20;;;;;;;;;;5055192;28;20797;-57
2020/12/23 04:07:29;;;;;;;17.20;12.33;;;;;;;;;;5054881;28;20476;-55
2020/12/23 04:09:57;;;;;;;9.90;7.30;;;;;;;;;;5054869;28;20453;-53
2020/12/23 04:12:24;;;;;;;10.20;7.27;;;;;;;;;;5055231;28;20469;-56
2020/12/23 04:14:50;;;;;;;13.77;9.80;;;;;;;;;;5054740;28;20453;-54
2020/12/23 04:17:20;;;;;;;10.10;6.87;;;;;;;;;;5058119;28;20503;-52
2020/12/23 04:19:47;;;;;;;5.37;4.17;;;;;;;;;;5074636;28;20452;-58
2020/12/23 04:22:14;;;;;;;5.40;4.03;;;;;;;;;;5074755;28;20455;-49
2020/12/23 04:24:41;;;;;;;5.20;3.47;;;;;;;;;;5074375;28;20468;-56
2020/12/23 04:27:08;;;;;;;5.67;3.50;;;;;;;;;;5075112;28;20429;-53
2020/12/23 04:29:36;;;;;;;5.77;3.70;;;;;;;;;;5075119;28;20428;-51
2020/12/23 04:32:03;;;;;;;5.60;3.87;;;;;;;;;;5074633;28;20460;-55
2020/12/23 04:34:30;;;;;;;11.40;5.10;;;;;;;;;;5074530;28;20724;-47
2020/12/23 04:36:56;;;;;;;7.27;4.70;;;;;;;;;;5075042;28;20515;-50
2020/12/23 04:39:23;;;;;;;7.70;5.40;;;;;;;;;;5074028;28;20460;-54
2020/12/23 04:41:50;;;;;;;7.97;5.67;;;;;;;;;;5074500;28;20452;-51
2020/12/23 04:44:18;;;;;;;6.03;5.00;;;;;;;;;;5074495;28;20437;-54
2020/12/23 04:46:45;;;;;;;7.40;5.50;;;;;;;;;;5074063;28;20472;-54
2020/12/23 04:49:13;;;;;;;6.90;4.53;;;;;;;;;;5070016;28;20471;-51
2020/12/23 04:51:47;;;;;;;8.43;5.00;;;;;;;;;;5056262;28;20462;-55
2020/12/23 04:54:14;;;;;;;6.70;3.70;;;;;;;;;;5074189;28;20472;-52
2020/12/23 04:56:41;;;;;;;7.10;4.93;;;;;;;;;;5065637;28;20488;-50
2020/12/23 04:59:08;;;;;;;4.20;3.37;;;;;;;;;;5054297;28;20467;-58
2020/12/23 05:01:35;;;;;;;6.20;3.80;;;;;;;;;;5054598;28;20469;-58
2020/12/23 05:04:02;;;;;;;7.60;3.80;;;;;;;;;;5054510;28;20669;-58
2020/12/23 05:06:29;;;;;;;6.90;4.93;;;;;;;;;;5054511;28;20449;-54
2020/12/23 05:08:55;;;;;;;8.30;6.17;;;;;;;;;;5053645;28;20447;-46
2020/12/23 05:11:22;;;;;;;8.60;4.00;;;;;;;;;;5054636;28;20468;-54
2020/12/23 05:13:50;;;;;;;6.67;4.00;;;;;;;;;;5073847;28;20460;-51
2020/12/23 05:16:22;;;;;;;7.73;3.60;;;;;;;;;;5073496;28;20521;-60
2020/12/23 05:18:50;;;;;;;6.70;4.70;;;;;;;;;;5073934;28;20459;-53
2020/12/23 05:21:21;;;;;;;5.40;4.20;;;;;;;;;;5073320;28;20488;-56
2020/12/23 05:23:59;;;;;;;8.43;3.67;;;;;;;;;;5074005;28;20464;-53
2020/12/23 05:26:26;;;;;;;5.90;3.73;;;;;;;;;;5074178;28;20460;-54
2020/12/23 05:28:53;;;;;;;6.70;4.17;;;;;;;;;;5072938;28;20454;-47
2020/12/23 05:31:33;;;;;;;4.37;2.87;;;;;;;;;;5089693;28;20444;-53
2020/12/23 05:34:01;;;;;;;8.93;4.10;;;;;;;;;;5061323;28;20475;-52
2020/12/23 05:36:28;;;;;;;8.60;3.77;;;;;;;;;;5063486;28;20488;-57
2020/12/23 05:38:55;;;;;;;6.30;3.83;;;;;;;;;;5073627;28;20456;-52
2020/12/23 05:41:22;;;;;;;7.50;4.53;;;;;;;;;;5073161;28;20792;-56
2020/12/23 05:43:49;;;;;;;8.10;4.03;;;;;;;;;;5073768;28;20468;-56
2020/12/23 05:46:18;;;;;;;6.60;4.33;;;;;;;;;;5073065;28;20468;-56
2020/12/23 05:48:45;;;;;;;5.20;3.80;;;;;;;;;;5073544;28;20465;-54
2020/12/23 05:51:12;;;;;;;8.30;4.30;;;;;;;;;;5071366;28;20479;-54
2020/12/23 05:53:40;;;;;;;8.73;4.13;;;;;;;;;;5059570;28;20494;-53
2020/12/23 05:56:07;;;;;;;7.73;3.87;;;;;;;;;;5073140;28;20488;-60
2020/12/23 05:58:35;;;;;;;7.87;4.00;;;;;;;;;;5073058;28;20502;-51
2020/12/23 06:01:04;;;;;;;7.57;3.63;;;;;;;;;;5073160;28;20472;-51
2020/12/23 06:03:40;;;;;;;5.60;3.40;;;;;;;;;;5073778;28;20568;-55
2020/12/23 06:06:30;;;;;;;5.37;3.03;;;;;;;;;;5073542;28;20430;-53
2020/12/23 06:08:58;;;;;;;5.77;2.93;;;;;;;;;;5072975;28;20470;-54
2020/12/23 06:11:40;;;;;;;6.23;3.40;;;;;;;;;;5072650;28;20483;-57
2020/12/23 06:14:25;;;;;;;6.43;4.40;;;;;;;;;;5073241;28;20517;-58
2020/12/23 06:17:03;;;;;;;5.37;3.00;;;;;;;;;;5053249;28;20560;-53
2020/12/23 06:19:36;;;;;;;4.40;2.93;;;;;;;;;;5053019;28;20497;-55
2020/12/23 06:22:03;;;;;;;5.40;3.73;;;;;;;;;;5052991;28;20482;-51
2020/12/23 06:24:31;;;;;;;5.77;3.63;;;;;;;;;;5067801;28;20585;-56
2020/12/23 06:27:13;;;;;;;5.10;3.20;;;;;;;;;;5075502;28;20463;-55
2020/12/23 06:29:40;;;;;;;5.80;3.30;;;;;;;;;;5076639;28;20462;-54
2020/12/23 06:32:08;;;;;;;9.17;2.67;;;;;;;;;;5075759;28;20452;-50
2020/12/23 06:34:37;;;;;;;5.80;3.17;;;;;;;;;;5078134;28;20461;-53
2020/12/23 06:37:16;;;;;;;4.90;2.80;;;;;;;;;;5076244;28;20498;-55
2020/12/23 06:39:49;;;;;;;6.87;2.93;;;;;;;;;;5076177;28;20470;-57
2020/12/23 06:42:24;;;;;;;8.20;2.40;;;;;;;;;;5076318;28;20461;-57
2020/12/23 06:44:55;;;;;;;6.20;2.93;;;;;;;;;;5075598;28;20455;-57
2020/12/23 06:47:22;;;;;;;6.17;2.70;;;;;;;;;;5076132;28;20445;-56
2020/12/23 06:52:53;;;;;;;5.20;2.33;;;;;;;;;;5056602;28;20451;-57
2020/12/23 06:55:20;;;;;;;4.43;2.23;;;;;;;;;;5056190;28;20465;-59
2020/12/23 06:57:50;;;;;;;4.20;2.40;;;;;;;;;;5053716;28;20476;-49
2020/12/23 07:00:36;;;;;;;6.37;2.40;;;;;;;;;;5055829;28;20448;-56
2020/12/23 07:03:05;;;;;;;4.40;2.40;;;;;;;;;;5055221;28;20465;-54
2020/12/23 07:05:36;;;;;;;4.50;2.90;;;;;;;;;;5055405;28;20458;-46
2020/12/23 07:08:06;;;;;;;5.20;2.50;;;;;;;;;;5054779;28;20468;-55
2020/12/23 07:10:38;;;;;;;5.60;2.73;;;;;;;;;;5054583;28;20462;-56
2020/12/23 07:13:05;;;;;;;7.23;3.47;;;;;;;;;;5055574;28;20479;-60
2020/12/23 07:15:33;;;;;;;3.17;1.93;;;;;;;;;;5074226;28;20461;-58
2020/12/23 07:18:07;;;;;;;4.40;2.27;;;;;;;;;;5060705;28;20474;-56
2020/12/23 07:20:35;;;;;;;5.00;2.33;;;;;;;;;;5055029;28;20527;-59
2020/12/23 07:23:06;;;;;;;6.20;2.40;;;;;;;;;;5054438;28;20528;-56
2020/12/23 07:25:52;;;;;;;3.63;1.57;;;;;;;;;;5054075;28;20478;-53
2020/12/23 07:28:21;;;;;;;4.20;1.90;;;;;;;;;;5054404;28;20467;-53
2020/12/23 07:30:51;;;;;;;4.90;1.73;;;;;;;;;;5054287;28;20503;-55
2020/12/23 07:33:36;;;;;;;2.50;1.70;;;;;;;;;;5072249;28;20441;-58
2020/12/23 07:36:06;;;;;;;5.27;2.20;;;;;;;;;;5073951;28;20937;-57
2020/12/23 07:38:34;;;;;;;3.70;1.80;;;;;;;;;;5075159;28;20476;-59
2020/12/23 07:41:02;;;;;;;4.17;2.93;;;;;;;;;;5065057;28;20470;-50
2020/12/23 07:43:30;;;;;;;9.00;2.40;;;;;;;;;;5054998;28;20487;-56
2020/12/23 07:45:58;;;;;;;4.23;2.30;;;;;;;;;;5065602;28;20422;-56
2020/12/23 07:48:34;;;;;;;2.90;1.47;;;;;;;;;;5059133;28;20446;-54
2020/12/23 07:51:12;;;;;;;8.67;2.13;;;;;;;;;;5074593;28;20455;-57
2020/12/23 07:53:39;;;;;;;2.97;1.80;;;;;;;;;;5075873;28;20472;-59
2020/12/23 07:56:08;;;;;;;6.33;2.20;;;;;;;;;;5056974;28;20534;-57
2020/12/23 07:58:35;;;;;;;6.03;1.70;;;;;;;;;;5074578;28;20492;-58
2020/12/23 08:01:09;;;;;;;4.13;1.73;;;;;;;;;;5071873;28;20428;-57
2020/12/23 08:03:39;;;;;;;10.27;2.30;;;;;;;;;;5071813;28;20445;-58
2020/12/23 08:06:31;;;;;;;5.37;2.00;;;;;;;;;;5060492;28;20466;-60
2020/12/23 08:08:57;;;;;;;7.10;1.70;;;;;;;;;;5050781;28;20451;-53
2020/12/23 08:11:30;;;;;;;4.90;4.00;;;;;;;;;;5052257;28;20708;-59
2020/12/23 08:14:28;;;;;;;9.93;2.27;;;;;;;;;;5052905;28;20489;-54
2020/12/23 08:17:38;;;;;;;7.43;1.93;;;;;;;;;;5049466;28;20470;-57
2020/12/23 08:20:54;;;;;;;4.03;2.03;;;;;;;;;;5053178;28;20452;-53
2020/12/23 08:23:22;;;;;;;6.33;2.70;;;;;;;;;;5012117;28;20635;-51
2020/12/23 08:25:49;;;;;;;3.80;2.43;;;;;;;;;;5050203;28;20462;-56
2020/12/23 08:28:21;;;;;;;161.43;143.90;;;;;;;;;;5053278;28;20465;-55
2020/12/23 08:30:53;;;;;;;203.00;166.13;;;;;;;;;;5066774;28;20494;-56
2020/12/23 08:33:41;;;;;;;57.40;43.47;;;;;;;;;;5070897;28;20473;-51
2020/12/23 08:36:11;;;;;;;7.57;4.50;;;;;;;;;;5064229;28;20489;-50
2020/12/23 08:38:44;;;;;;;6.03;2.37;;;;;;;;;;5049827;28;20741;-54
2020/12/23 08:41:18;;;;;;;4.13;1.70;;;;;;;;;;5085850;28;20506;-48
2020/12/23 08:43:54;;;;;;;4.83;2.50;;;;;;;;;;5091293;28;20478;-59
2020/12/23 08:46:40;;;;;;;3.70;2.20;;;;;;;;;;5049408;28;20449;-52
2020/12/23 08:49:07;;;;;;;5.23;2.03;;;;;;;;;;5049811;28;20509;-51
2020/12/23 08:51:47;;;;;;;4.60;2.37;;;;;;;;;;5051647;28;20457;-58
2020/12/23 08:54:48;;;;;;;3.83;2.37;;;;;;;;;;5048808;28;20449;-55
2020/12/23 08:57:16;;;;;;;4.40;2.30;;;;;;;;;;5048311;28;20481;-57
2020/12/23 09:02:18;;;;;;;7.63;3.10;;;;;;;;;;5065567;28;20475;-59
2020/12/23 09:05:07;;;;;;;6.73;2.90;;;;;;;;;;5070099;28;20479;-54
2020/12/23 09:10:55;;;;;;;4.00;1.73;;;;;;;;;;5058929;28;20449;-54
2020/12/23 09:13:32;;;;;;;3.13;1.53;;;;;;;;;;5070544;28;20483;-50
2020/12/23 09:16:01;;;;;;;2.87;1.80;;;;;;;;;;5064065;28;20523;-55
2020/12/23 09:18:44;;;;;;;3.53;1.60;;;;;;;;;;5048680;28;20458;-57
2020/12/23 09:21:31;;;;;;;4.77;1.77;;;;;;;;;;5050400;28;20465;-57
2020/12/23 09:27:23;;;;;;;3.77;2.80;;;;;;;;;;5049701;28;20403;-57
2020/12/23 09:30:10;;;;;;;4.80;2.73;;;;;;;;;;5019344;28;20458;-58
2020/12/23 09:33:12;;;;;;;5.97;2.53;;;;;;;;;;5069388;28;20483;-56
2020/12/23 09:35:43;;;;;;;3.40;2.20;;;;;;;;;;5053840;28;20498;-57
2020/12/23 09:38:19;;;;;;;5.10;2.97;;;;;;;;;;5051426;28;20470;-57
2020/12/23 09:41:03;;;;;;;8.67;2.30;;;;;;;;;;5061697;28;20634;-56
2020/12/23 09:43:57;;;;;;;4.23;2.60;;;;;;;;;;5063984;28;20480;-59
2020/12/23 09:46:24;;;;;;;3.20;2.20;;;;;;;;;;5069801;28;20464;-56
2020/12/23 09:49:03;;;;;;;5.50;3.03;;;;;;;;;;5088313;28;20521;-57
2020/12/23 09:51:37;;;;;;;4.30;2.43;;;;;;;;;;5088730;28;20467;-58
2020/12/23 09:54:19;;;;;;;4.33;2.70;;;;;;;;;;5089845;28;20564;-56
2020/12/23 10:02:29;;;;;;;3.70;2.67;;;;;;;;;;5087940;28;20199;-57
2020/12/23 10:07:53;;;;;;;4.60;2.80;;;;;;;;;;5093722;28;20475;-60
2020/12/23 10:10:24;;;;;;;7.50;3.03;;;;;;;;;;5086479;28;20542;-56
2020/12/23 10:12:50;;;;;;;11.80;3.20;;;;;;;;;;5072913;28;20465;-57
2020/12/23 10:15:18;;;;;;;7.17;5.00;;;;;;;;;;5077428;28;20449;-52
2020/12/23 10:17:54;;;;;;;7.53;3.03;;;;;;;;;;5092493;28;20465;-56
2020/12/23 10:23:25;;;;;;;6.90;3.50;;;;;;;;;;5094172;28;20447;-59
2020/12/23 10:26:02;;;;;;;5.53;2.67;;;;;;;;;;5093914;28;20449;-59
2020/12/23 10:28:53;;;;;;;8.73;3.00;;;;;;;;;;5092261;28;20485;-56
2020/12/23 10:31:27;;;;;;;5.90;2.90;;;;;;;;;;5083296;28;20452;-60
2020/12/23 10:34:10;;;;;;;7.10;2.83;;;;;;;;;;5076702;28;20501;-54
2020/12/23 10:36:41;;;;;;;3.80;2.60;;;;;;;;;;5093912;28;20486;-59
2020/12/23 10:39:11;;;;;;;4.67;2.73;;;;;;;;;;5079824;28;20473;-60
2020/12/23 10:44:49;;;;;;;4.73;2.50;;;;;;;;;;5087498;28;20458;-58
2020/12/23 10:47:20;;;;;;;5.60;1.80;;;;;;;;;;5093120;28;20455;-57
2020/12/23 10:59:15;;;;;;;7.13;2.53;;;;;;;;;;5089571;28;20474;-58
2020/12/23 11:02:00;;;;;;;3.67;1.93;;;;;;;;;;5094996;28;20468;-56
2020/12/23 11:04:44;;;;;;;4.30;2.70;;;;;;;;;;5076556;28;20433;-56
2020/12/23 11:07:14;;;;;;;4.77;2.37;;;;;;;;;;5092533;28;20440;-55
2020/12/23 11:09:59;;;;;;;3.20;1.90;;;;;;;;;;5091119;28;20450;-60
2020/12/23 11:12:26;;;;;;;5.50;2.40;;;;;;;;;;5076512;28;20526;-59
2020/12/23 11:18:17;;;;;;;3.57;1.80;;;;;;;;;;5073449;28;20567;-54
2020/12/23 11:20:48;;;;;;;3.00;1.57;;;;;;;;;;5075385;28;20490;-60
2020/12/23 11:26:33;;;;;;;3.43;2.07;;;;;;;;;;5092424;28;20421;-55
2020/12/23 11:29:17;;;;;;;3.00;1.70;;;;;;;;;;5091089;28;20528;-55
2020/12/23 11:32:04;;;;;;;5.50;2.40;;;;;;;;;;5087768;28;20477;-58
2020/12/23 11:34:47;;;;;;;4.63;2.10;;;;;;;;;;5073222;28;20448;-56
2020/12/23 11:37:33;;;;;;;4.07;2.63;;;;;;;;;;5081629;28;20483;-54
2020/12/23 11:40:07;;;;;;;4.87;2.80;;;;;;;;;;5090530;28;20495;-59
2020/12/23 11:42:41;;;;;;;4.27;3.00;;;;;;;;;;5096495;28;20497;-57
2020/12/23 11:45:10;;;;;;;3.80;2.17;;;;;;;;;;5103044;28;20476;-54
2020/12/23 11:47:40;;;;;;;5.60;2.33;;;;;;;;;;5114042;28;20451;-56
2020/12/23 11:50:30;;;;;;;5.30;3.50;;;;;;;;;;5100087;28;20556;-60
2020/12/23 11:53:12;;;;;;;5.23;3.17;;;;;;;;;;5076044;28;20452;-50
2020/12/23 11:58:27;;;;;;;6.37;3.27;;;;;;;;;;5086713;28;20478;-50
2020/12/23 12:01:12;;;;;;;4.00;2.27;;;;;;;;;;5091015;28;20456;-59
2020/12/23 12:04:02;;;;;;;5.07;3.23;;;;;;;;;;5079474;28;20502;-53
2020/12/23 12:06:44;;;;;;;3.83;2.20;;;;;;;;;;5070408;28;20454;-56
2020/12/23 12:09:13;;;;;;;4.20;2.60;;;;;;;;;;5106622;28;20481;-56
2020/12/23 12:17:36;;;;;;;4.33;2.50;;;;;;;;;;5099231;28;20557;-57
2020/12/23 12:20:08;;;;;;;4.50;2.67;;;;;;;;;;5108676;28;20472;-53
2020/12/23 12:28:58;;;;;;;4.50;2.77;;;;;;;;;;5074364;28;20442;-55
2020/12/23 12:31:28;;;;;;;4.60;2.40;;;;;;;;;;5095057;28;20489;-55
2020/12/23 12:36:51;;;;;;;4.90;3.53;;;;;;;;;;5086755;28;20603;-55
2020/12/23 12:39:19;;;;;;;4.47;2.27;;;;;;;;;;5087295;28;20202;-57
2020/12/23 12:42:17;;;;;;;;;;;;;;;;;;;;;
2020/12/23 12:45:03;;;;;;;4.53;2.40;;;;;;;;;;5010764;28;20522;-57
2020/12/23 12:47:39;;;;;;;5.27;3.03;;;;;;;;;;5079867;28;20683;-54
2020/12/23 12:50:08;;;;;;;3.13;2.23;;;;;;;;;;5075206;28;20743;-52
2020/12/23 12:53:07;;;;;;;5.87;2.60;;;;;;;;;;5072960;28;20511;-55
2020/12/23 12:55:38;;;;;;;8.93;2.83;;;;;;;;;;5086263;28;20489;-57
2020/12/23 13:01:37;;;;;;;9.33;2.73;;;;;;;;;;5070997;28;20428;-60
2020/12/23 13:04:17;;;;;;;5.93;3.23;;;;;;;;;;5070837;28;20448;-53
2020/12/23 13:06:49;;;;;;;5.00;3.43;;;;;;;;;;5066197;28;20433;-55
2020/12/23 13:09:18;;;;;;;6.50;4.40;;;;;;;;;;5069828;28;20454;-58
2020/12/23 13:14:45;;;;;;;4.17;2.67;;;;;;;;;;5097105;28;20497;-54
2020/12/23 13:17:31;;;;;;;6.87;4.07;;;;;;;;;;5110337;28;20516;-59
2020/12/23 13:20:08;;;;;;;6.60;4.30;;;;;;;;;;5107254;28;20486;-56
2020/12/23 13:22:42;;;;;;;8.10;3.50;;;;;;;;;;5110401;28;20462;-56
2020/12/23 13:28:31;;;;;;;5.30;3.27;;;;;;;;;;5104050;28;20451;-50
2020/12/23 13:31:26;;;;;;;6.93;3.63;;;;;;;;;;5091362;28;20495;-60
2020/12/23 13:33:57;;;;;;;5.80;3.60;;;;;;;;;;5091833;28;20600;-52
2020/12/23 13:36:55;;;;;;;6.07;3.40;;;;;;;;;;5090602;28;20690;-50
2020/12/23 13:39:35;;;;;;;6.10;4.10;;;;;;;;;;5085961;28;20471;-54
2020/12/23 13:42:02;;;;;;;10.77;7.13;;;;;;;;;;5105045;28;20551;-52
2020/12/23 13:44:48;;;;;;;7.87;4.23;;;;;;;;;;5109898;28;20466;-55
2020/12/23 13:47:18;;;;;;;7.33;3.97;;;;;;;;;;5110055;28;20458;-55
2020/12/23 13:52:39;;;;;;;10.87;7.33;;;;;;;;;;5091291;28;20445;-49
2020/12/23 13:55:18;;;;;;;6.27;3.80;;;;;;;;;;5094431;28;20494;-59
2020/12/23 14:03:39;;;;;;;6.60;4.43;;;;;;;;;;5067960;28;20427;-52
2020/12/23 14:06:46;;;;;;;6.27;4.13;;;;;;;;;;5068351;28;20474;-54
2020/12/23 14:09:33;;;;;;;22.03;19.87;;;;;;;;;;5069259;28;20483;-57
2020/12/23 14:12:30;;;;;;;40.10;36.53;;;;;;;;;;5083244;28;20499;-57
2020/12/23 14:15:25;;;;;;;13.20;11.00;;;;;;;;;;5085409;28;20704;-56
2020/12/23 14:21:27;;;;;;;7.80;3.90;;;;;;;;;;5049113;28;20461;-57
2020/12/23 14:27:16;;;;;;;5.77;4.20;;;;;;;;;;4960944;28;20486;-56
2020/12/23 14:30:24;;;;;;;31.20;28.07;;;;;;;;;;5069341;28;20463;-51
2020/12/23 14:33:24;;;;;;;12.07;10.87;;;;;;;;;;5096818;28;20608;-59
2020/12/23 14:36:14;;;;;;;21.50;19.70;;;;;;;;;;5107434;28;20450;-56
2020/12/23 14:38:46;;;;;;;16.40;12.30;;;;;;;;;;5096195;28;20530;-56
2020/12/23 14:41:31;;;;;;;7.53;5.30;;;;;;;;;;5104691;28;20457;-57
2020/12/23 14:44:04;;;;;;;4.03;3.10;;;;;;;;;;5116694;28;20457;-53
2020/12/23 14:47:06;;;;;;;7.50;3.20;;;;;;;;;;5094909;28;20564;-61
2020/12/23 14:52:46;;;;;;;10.40;3.57;;;;;;;;;;5078062;28;20488;-56
2020/12/23 14:55:20;;;;;;;4.53;2.00;;;;;;;;;;5089400;28;20458;-59
2020/12/23 14:58:32;;;;;;;3.60;1.80;;;;;;;;;;5077852;28;20477;-60
2020/12/23 15:01:25;;;;;;;4.07;2.23;;;;;;;;;;5081927;28;20460;-56
2020/12/23 15:03:53;;;;;;;3.90;2.50;;;;;;;;;;5079668;28;20454;-56
2020/12/23 15:06:21;;;;;;;4.13;2.27;;;;;;;;;;5079376;28;20464;-57
2020/12/23 15:08:56;;;;;;;3.03;1.93;;;;;;;;;;5072742;28;20457;-52
2020/12/23 15:19:44;;;;;;;5.03;2.60;;;;;;;;;;5068494;28;20218;-58
2020/12/23 15:22:13;;;;;;;3.30;2.30;;;;;;;;;;5105327;28;20466;-56
2020/12/23 15:24:42;;;;;;;5.60;2.90;;;;;;;;;;5073734;28;20539;-52
2020/12/23 15:27:09;;;;;;;7.40;3.50;;;;;;;;;;5093342;28;20505;-51
2020/12/23 15:29:36;;;;;;;9.30;7.63;;;;;;;;;;5088797;28;20476;-58
2020/12/23 15:32:12;;;;;;;4.63;4.07;;;;;;;;;;5092101;28;20522;-57
2020/12/23 15:37:32;;;;;;;3.30;1.87;;;;;;;;;;5090427;28;20474;-56
2020/12/23 15:40:07;;;;;;;3.70;2.40;;;;;;;;;;5096155;28;20454;-56
2020/12/23 15:42:41;;;;;;;4.03;3.63;;;;;;;;;;5110884;28;20518;-54
2020/12/23 15:48:05;;;;;;;7.13;2.40;;;;;;;;;;5067558;28;20490;-58
2020/12/23 15:50:34;;;;;;;3.90;2.20;;;;;;;;;;5092090;28;20447;-59
2020/12/23 15:53:21;;;;;;;4.53;2.40;;;;;;;;;;5090419;28;20510;-57
2020/12/23 15:58:45;;;;;;;5.13;2.70;;;;;;;;;;5068528;28;20445;-58
2020/12/23 16:01:13;;;;;;;3.73;2.07;;;;;;;;;;5058439;28;20455;-53
2020/12/23 16:04:12;;;;;;;3.73;2.30;;;;;;;;;;5068617;28;20440;-55
2020/12/23 16:06:49;;;;;;;6.67;3.17;;;;;;;;;;5057709;28;20512;-60
2020/12/23 16:09:24;;;;;;;4.40;2.50;;;;;;;;;;5064440;28;20472;-53
2020/12/23 16:11:54;;;;;;;5.97;3.70;;;;;;;;;;5081467;28;20519;-58
2020/12/23 16:14:21;;;;;;;6.20;3.10;;;;;;;;;;5071871;28;20521;-56
2020/12/23 16:19:13;;;;;;;8.80;3.10;;;;;;;;;;5092668;28;20490;-57
2020/12/23 16:22:10;;;;;;;3.20;2.37;;;;;;;;;;5100756;28;20219;-57
2020/12/23 16:24:38;;;;;;;4.53;2.40;;;;;;;;;;5098528;28;20462;-55
2020/12/23 16:27:39;;;;;;;8.63;6.03;;;;;;;;;;5102617;28;20480;-54
2020/12/23 16:30:22;;;;;;;4.23;2.37;;;;;;;;;;5093462;28;20497;-56
2020/12/23 16:33:09;;;;;;;3.63;2.33;;;;;;;;;;5102081;28;20641;-52
2020/12/23 16:36:06;;;;;;;4.57;3.20;;;;;;;;;;5109849;28;20463;-53
2020/12/23 16:39:09;;;;;;;4.17;2.00;;;;;;;;;;5091055;28;20443;-54
2020/12/23 16:42:01;;;;;;;3.17;1.50;;;;;;;;;;5027383;28;20449;-59
2020/12/23 16:44:38;;;;;;;2.97;1.87;;;;;;;;;;5041810;28;20490;-54
2020/12/23 16:50:15;;;;;;;6.90;4.20;;;;;;;;;;5070593;28;20487;-55
2020/12/23 16:53:16;;;;;;;4.90;2.43;;;;;;;;;;5096440;28;20517;-55
2020/12/23 16:55:55;;;;;;;3.90;1.90;;;;;;;;;;5077511;28;20458;-55
2020/12/23 16:58:28;;;;;;;7.73;5.97;;;;;;;;;;5073419;28;20495;-62
2020/12/23 17:07:31;;;;;;;3.53;2.17;;;;;;;;;;5087774;28;20469;-60
2020/12/23 17:10:22;;;;;;;4.70;2.33;;;;;;;;;;5100267;28;20559;-57
2020/12/23 17:19:29;;;;;;;6.50;2.40;;;;;;;;;;5062257;28;20475;-56
2020/12/23 17:31:15;;;;;;;3.80;2.33;;;;;;;;;;5091633;28;20497;-55
2020/12/23 17:34:12;;;;;;;4.10;2.70;;;;;;;;;;5095198;28;20456;-57
2020/12/23 17:39:52;;;;;;;6.40;1.87;;;;;;;;;;5088722;28;20442;-54
2020/12/23 17:42:19;;;;;;;5.83;2.60;;;;;;;;;;5078748;28;20489;-56
2020/12/23 17:45:08;;;;;;;3.90;2.00;;;;;;;;;;5076460;28;20673;-57
2020/12/23 17:47:42;;;;;;;3.47;1.93;;;;;;;;;;5078970;28;20463;-58
2020/12/23 17:50:15;;;;;;;3.30;1.73;;;;;;;;;;5089397;28;20486;-58
2020/12/23 17:52:46;;;;;;;4.00;1.70;;;;;;;;;;5106003;28;20470;-54
2020/12/23 17:55:46;;;;;;;5.17;2.03;;;;;;;;;;5092143;28;20502;-54
2020/12/23 17:58:16;;;;;;;3.17;1.83;;;;;;;;;;5085765;28;20498;-57
2020/12/23 18:00:44;;;;;;;4.50;1.83;;;;;;;;;;5070933;28;20454;-58
2020/12/23 18:03:18;;;;;;;3.87;1.70;;;;;;;;;;5089849;28;20480;-58
2020/12/23 18:05:49;;;;;;;4.97;2.00;;;;;;;;;;5088096;28;20948;-56
2020/12/23 18:08:18;;;;;;;4.47;2.20;;;;;;;;;;5048368;28;20455;-50
2020/12/23 18:19:23;;;;;;;4.83;1.90;;;;;;;;;;5071258;28;20479;-57
2020/12/23 18:21:59;;;;;;;3.93;1.97;;;;;;;;;;5082687;28;20202;-57
2020/12/23 18:24:57;;;;;;;2.57;1.60;;;;;;;;;;5079677;28;20490;-57
2020/12/23 18:27:45;;;;;;;3.50;1.90;;;;;;;;;;5082187;28;20499;-57